Whiteside, TN

7:08 AM CST on March 01, 2015 (GMT -0600)
Lovell | Change Station
CLOSE
Current Station
Airport
Location: Chattanooga,
Elevation: 689 ft
Nearby Weather Stations

Elev 689 ft 35.04 °N, 85.20 °W | Updated 15 minutes ago

Overcast
Overcast
43 °F
Feels Like 40 °F
N
5
Wind Variable Wind from SSW

Today
High -- | Low -- °F
--% Chance of Precip.
Yesterday
High -- | Low -- °F
Precip. -- in
6:11 AM 5:37 PM
Waxing Gibbous, 85% visible
Pressure 30.47 in
Visibility 10.0 miles
Clouds Mostly Cloudy 2000 ft
Overcast 3000 ft
Windchill 40 °F
Dew Point 32 °F
Humidity 65%
Rainfall 0.00 in
Snow Depth Not available.
UV 0 out of 12
Pollen 4.40 out of 12
Air Quality Not available.
Flu Activity Not available.
METAR KCHA 011253Z 21004KT 10SM BKN020 OVC030 06/00 A3046 RMK AO2 SLP318 T00610000

More Conditions Fewer Conditions

Pressure 30.47 in
Visibility 10.0 miles
Clouds Mostly Cloudy 2000 ft
Overcast 3000 ft
Windchill 40 °F
Dew Point 32 °F
Humidity 65%
Rainfall 0.00 in
Snow Depth Not available.
UV 0 out of 12
Pollen 4.40 out of 12
Air Quality Not available.
Flu Activity Not available.
METAR KCHA 011253Z 21004KT 10SM BKN020 OVC030 06/00 A3046 RMK AO2 SLP318 T00610000

More Conditions Fewer Conditions

10-Day Weather Forecast

Almanac

Astronomy

Mar. 01, 2015 Rise Set
Actual Time
Civil Twilight
Nautical Twilight
Astronomical Twilight
Moon
Length of Visible Light
Length of Day
Tomorrow will be .
, % of the Moon is Illuminated

Today's Extremes

State Highs State Lows

Community

WunderPhotos

Upload Photos

1,801,373 photos uploaded!

WunderBlogs® & News

Nearby

Air Quality

  Air Quality AQ Index Pollutant
Not available.

Snow Depth

Station Depth Elevation

Earthquake Activity

City Distance Mag. Time & Date
Minimum magnitude displayed is 2.5.

Coastal Water Temperatures

Place Temperature

Nearby Weather Stations